• Join FlightAware (Why Join?)
  • Login
  • US Flag 
06:03AM EDT


 

Airport Tracker/Info


-or-


 

Live Flight TrackerFlight Track Log ✈ DAL221 ✈ 11-Jul-2013 ✈ KATL - SBBR / BSB

Flight Track Log - Related Links

Times and Time Zones

All times are in EDT time to prevent confusion due to time zone crossing. See the DAL221 flight status page for this flight to view local times or setup timezone preferences in your user account.

Time Position Orientation Groundspeed Altitude Reporting Facility
EDT Latitude Longitude Course Direction KTS MPH feet Rate Location/Type
11:33PM 33.6420 -84.4270 North 23 26  Level FlightAware
11:33PM 33.6440 -84.4270 360° North 27 31 240 Level FlightAware
11:34PM 33.6450 -84.4280 320° Northwest 34 39 240 Level FlightAware
11:34PM 33.6450 -84.4290 270° West 29 33 240 Level FlightAware
11:35PM 33.6450 -84.4340 270° West 17 20 240 Level FlightAware
11:36PM 33.6450 -84.4360 270° West 24 28 300 Level FlightAware
11:36PM 33.6450 -84.4370 270° West 21 24 360 Level FlightAware
11:36PM 33.6460 -84.4380 320° Northwest 13 15 360 Level FlightAware
11:39PM 33.4859 -84.2667 180° South  Level FlightAware Approximate
11:39PM 33.6490 -84.4380 180° South 25 29  Level FlightAware
11:40PM 33.6470 -84.4360 140° Southeast 50 58 1,020 Level FlightAware
11:40PM 33.6470 -84.4170 90° East 2,100 Level FlightAware
11:41PM 33.6460 -84.3890 92° East 183 211 2,000 3,360 Climbing FlightAware
11:41PM 33.6430 -84.3730 103° East 192 221 2,500 1,200 Climbing FlightAware
11:41PM 33.6330 -84.3420 111° Southeast 228 262 2,900 960 Climbing FlightAware
11:42PM 33.6160 -84.3100 123° Southeast 258 297 3,400 1,200 Climbing FlightAware
11:42PM 33.6040 -84.3020 151° Southeast 270 311 3,700 1,800 Climbing FlightAware
11:42PM 33.5850 -84.2980 170° South 277 319 4,200 2,280 Climbing FlightAware
11:43PM 33.5480 -84.2960 177° South 283 326 5,300 2,460 Climbing FlightAware
11:43PM 33.5110 -84.2950 179° South 287 330 6,500 2,340 Climbing FlightAware
11:44PM 33.4720 -84.2920 176° South 289 333 7,600 2,160 Climbing FlightAware
11:44PM 33.4380 -84.2730 155° Southeast 288 331 8,600 2,100 Climbing FlightAware
11:45PM 33.4060 -84.2470 146° Southeast 295 339 9,600 1,800 Climbing FlightAware
11:45PM 33.3600 -84.2070 144° Southeast 313 360 10,700 1,200 Climbing FlightAware
11:46PM 33.3140 -84.1680 145° Southeast 347 399 11,200 840 Climbing FlightAware
11:47PM 33.2600 -84.1220 145° Southeast 375 432 11,800 1,020 Climbing FlightAware
11:47PM 33.1950 -84.0670 145° Southeast 396 456 12,700 1,500 Climbing FlightAware
11:48PM 33.1350 -84.0170 145° Southeast 402 463 13,900 2,040 Climbing FlightAware
11:49PM 33.0670 -83.9600 145° Southeast 392 451 15,600 2,040 Climbing FlightAware
11:50PM 33.0070 -83.9100 145° Southeast 395 455 16,800 1,620 Climbing FlightAware
11:50PM 32.9420 -83.8560 145° Southeast 401 461 17,900 1,380 Climbing FlightAware
11:51PM 32.8940 -83.8160 145° Southeast 406 467 18,600 1,020 Climbing FlightAware
11:52PM 32.8160 -83.7500 145° Southeast 408 470 19,400 420 Climbing FlightAware
11:52PM 32.7540 -83.6960 144° Southeast 408 470 19,400 1,860 Level FlightAware
11:53PM 32.6830 -83.6380 145° Southeast 418 481 21,900 2,460 Climbing FlightAware
11:54PM 32.6200 -83.5760 140° Southeast 428 493 22,500 960 Climbing FlightAware
11:55PM 32.5350 -83.4900 140° Southeast 436 502 23,500 900 Climbing FlightAware
11:55PM 32.4870 -83.4430 140° Southeast 446 513 23,800 180 Climbing FlightAware
11:56PM 32.3750 -83.3280 139° Southeast 453 521 23,900  Climbing FlightAware
11:57PM 32.3270 -83.2790 139° Southeast 453 521 23,900  Level FlightAware
11:58PM 32.2650 -83.2150 139° Southeast 453 521 23,900  Level FlightAware
11:58PM 32.2160 -83.1650 139° Southeast 453 521 23,900  Level FlightAware
11:59PM 32.1520 -83.0990 139° Southeast 453 521 23,900 2,160 Level FlightAware
12:00AM 32.0058 -82.9708 139° Southeast 480 552 27,200 2,220 Climbing Jacksonville Center
12:01AM 31.9139 -82.9072 150° Southeast 485 558 27,800 720 Climbing Jacksonville Center
12:02AM 31.7867 -82.8169 149° Southeast 485 558 28,700 900 Climbing Jacksonville Center
12:03AM 31.6694 -82.7314 148° Southeast 485 558 29,600 900 Climbing Jacksonville Center
12:04AM 31.5586 -82.6486 148° Southeast 485 558 30,600 900 Climbing Jacksonville Center
12:05AM 31.4458 -82.5686 149° Southeast 479 551 31,400 720 Climbing Jacksonville Center
12:06AM 31.3267 -82.4936 152° Southeast 479 551 32,100 600 Climbing Jacksonville Center
12:07AM 31.2053 -82.4067 149° Southeast 479 551 32,700 660 Climbing Jacksonville Center
12:08AM 31.1006 -82.3344 149° Southeast 479 551 33,500 600 Climbing Jacksonville Center
12:09AM 30.9789 -82.2481 149° Southeast 473 544 34,000 240 Climbing Jacksonville Center
12:10AM 30.8658 -82.1714 150° Southeast 473 544 34,000  Level Jacksonville Center
12:15AM 30.2360 -81.7890 150° Southeast 472 543 34,000  Level FlightAware
12:16AM 30.1540 -81.7420 154° Southeast 472 543 34,000  Level FlightAware
12:17AM 30.0710 -81.6940 153° Southeast 472 543 34,000  Level FlightAware
12:18AM 29.9560 -81.6280 154° Southeast 470 541 34,000  Level FlightAware
12:19AM 29.8530 -81.5690 154° Southeast 470 541 34,000  Level FlightAware
12:20AM 29.7430 -81.5060 154° Southeast 469 540 34,000  Level FlightAware
12:20AM 29.8150 -81.5470 334° Northwest 470 541 34,000  Level FlightAware
12:21AM 29.5540 -81.3980 154° Southeast 470 541 34,000  Level FlightAware
12:22AM 29.4650 -81.3480 154° Southeast 34,000  Level FlightAware
12:23AM 29.3660 -81.2910 153° Southeast 465 535 34,000  Level FlightAware
12:23AM 29.2930 -81.2500 154° Southeast 465 535 34,000  Level FlightAware
12:24AM 29.2040 -81.2000 154° Southeast 466 536 34,000  Level FlightAware
12:25AM 29.1230 -81.1540 154° Southeast 465 535 34,000  Level FlightAware
12:25AM 29.0670 -81.1230 154° Southeast 467 537 34,000  Level FlightAware
12:26AM 28.9790 -81.0750 154° Southeast 468 539 34,000  Level FlightAware
12:26AM 28.9280 -81.0470 154° Southeast 468 539 34,000  Level FlightAware
12:27AM 28.8460 -81.0020 154° Southeast 467 537 34,000  Level FlightAware
12:28AM 28.7610 -80.9550 154° Southeast 466 536 34,000  Level FlightAware
12:29AM 28.6810 -80.9110 154° Southeast 467 537 34,000  Level FlightAware
12:29AM 28.5910 -80.8620 154° Southeast 467 537 34,000  Level FlightAware
12:30AM 28.5130 -80.8190 154° Southeast 466 536 34,000  Level FlightAware
12:31AM 28.4330 -80.7750 154° Southeast 466 536 34,000  Level FlightAware
12:31AM 28.3540 -80.7300 153° Southeast 466 536 34,000  Level FlightAware
12:32AM 28.2860 -80.6900 153° Southeast 466 536 34,000  Level FlightAware
12:33AM 28.1760 -80.6350 156° South 465 535 34,000  Level FlightAware
12:33AM 28.0980 -80.5930 155° Southeast 465 535 34,000  Level FlightAware
12:34AM 28.0080 -80.5440 154° Southeast 464 534 34,000 420 Level FlightAware
12:35AM 27.9280 -80.5010 155° Southeast 467 537 34,600 720 Climbing FlightAware
12:36AM 27.8490 -80.4580 154° Southeast 467 537 35,000 240 Climbing FlightAware
12:36AM 27.7600 -80.4100 154° Southeast 467 537 35,000  Level FlightAware
12:37AM 27.6860 -80.3710 155° Southeast 467 537 35,000  Level FlightAware
12:38AM 27.6060 -80.3270 154° Southeast 461 531 35,000  Level FlightAware
12:38AM 27.5380 -80.2910 155° Southeast 462 532 35,000  Level FlightAware
12:39AM 27.4510 -80.2450 155° Southeast 462 532 35,000  Level FlightAware
12:40AM 27.3730 -80.2030 154° Southeast 462 532 35,000  Level FlightAware
12:40AM 27.2820 -80.1540 154° Southeast 463 533 35,000  Level FlightAware
12:41AM 27.1950 -80.1080 155° Southeast 462 532 35,000  Level FlightAware
12:42AM 27.1140 -80.0650 155° Southeast 462 532 35,000  Level FlightAware
12:42AM 27.0470 -80.0290 154° Southeast 461 531 35,000  Level FlightAware
12:43AM 26.9490 -79.9770 155° Southeast 467 537 35,000  Level FlightAware
12:44AM 26.8780 -79.9400 155° Southeast 467 537 35,000  Level FlightAware
12:45AM 26.7880 -79.8920 155° Southeast 466 536 35,000  Level FlightAware
12:45AM 26.7120 -79.8520 155° Southeast 465 535 35,000  Level FlightAware
12:46AM 26.6350 -79.8120 155° Southeast 463 533 35,000  Level FlightAware
12:47AM 26.5560 -79.7700 155° Southeast 461 531 35,000  Level FlightAware
12:47AM 26.4590 -79.7190 155° Southeast 459 528 35,000  Level FlightAware
12:48AM 26.3810 -79.6780 155° Southeast 450 518 35,000  Level FlightAware
12:49AM 26.3070 -79.6400 155° Southeast 448 516 35,000  Level FlightAware
12:49AM 26.2290 -79.5990 155° Southeast 445 512 35,000  Level FlightAware
12:50AM 26.1350 -79.5500 155° Southeast 443 510 35,000  Level FlightAware
12:51AM 26.0600 -79.5110 155° Southeast 448 516 35,000  Level FlightAware
12:52AM 25.9840 -79.4710 155° Southeast 445 512 35,000  Level FlightAware
12:52AM 25.9090 -79.4320 155° Southeast 442 509 35,000  Level FlightAware
12:53AM 25.8240 -79.3880 155° Southeast 440 506 35,000  Level FlightAware
12:54AM 25.7600 -79.3550 155° Southeast 432 497 35,000  Level FlightAware
12:54AM 25.6850 -79.3160 155° Southeast 431 496 35,000  Level FlightAware
12:55AM 25.6140 -79.2800 155° Southeast 429 494 35,000  Level FlightAware
12:56AM 25.5330 -79.2380 155° Southeast 437 503 35,000  Level FlightAware
12:56AM 25.4590 -79.2000 155° Southeast 439 505 35,000  Level FlightAware
12:57AM 25.3820 -79.1600 155° Southeast 441 507 35,000  Level FlightAware
12:58AM 25.3070 -79.1220 155° Southeast 442 509 35,000  Level FlightAware
12:58AM 25.2340 -79.0840 155° Southeast 443 510 35,000  Level FlightAware
12:59AM 25.1500 -79.0410 155° Southeast 443 510 35,000  Level FlightAware
01:00AM 25.0750 -79.0030 155° Southeast 443 510 35,000  Level FlightAware
01:00AM 25.0020 -78.9650 155° Southeast 445 512 35,000  Level FlightAware
01:01AM 24.9350 -78.9310 155° Southeast 446 513 35,000  Level FlightAware
01:02AM 24.8510 -78.8890 156° South 441 507 35,000  Level FlightAware
01:02AM 24.7800 -78.8520 155° Southeast 443 510 35,000  Level FlightAware
01:03AM 24.6990 -78.8110 155° Southeast 445 512 35,000  Level FlightAware
01:04AM 24.6120 -78.7670 155° Southeast 445 512 35,000  Level FlightAware
01:05AM 24.5370 -78.7290 155° Southeast 446 513 35,000  Level FlightAware
01:05AM 24.4490 -78.6850 156° South 447 514 35,000  Level FlightAware
01:06AM 24.3930 -78.6560 155° Southeast 448 516 35,000  Level FlightAware
01:07AM 24.3050 -78.6120 156° South 457 526 35,000  Level FlightAware
01:07AM 24.2390 -78.5780 155° Southeast 457 526 35,000  Level FlightAware
01:08AM 24.1800 -78.5480 155° Southeast 457 526 35,000  Level FlightAware
01:08AM 24.1220 -78.5180 155° Southeast 457 526 35,000  Level FlightAware
01:09AM 24.0440 -78.4780 155° Southeast 457 526 35,000  Level FlightAware
01:10AM 23.9850 -78.4480 155° Southeast 457 526 35,000  Level FlightAware
01:11AM 23.8770 -78.3940 155° Southeast 457 526 35,000  Level FlightAware
01:12AM 23.7990 -78.3540 155° Southeast 457 526 35,000  Level FlightAware
01:13AM 23.7180 -78.3120 155° Southeast 457 526 35,000  Level FlightAware
01:13AM 23.6590 -78.2820 155° Southeast 457 526 35,000  Level FlightAware
01:14AM 23.5990 -78.2520 155° Southeast 457 526 35,000  Level FlightAware
01:14AM 23.5400 -78.2220 155° Southeast 457 526 35,000  Level FlightAware
01:15AM 23.4620 -78.1820 155° Southeast 457 526 35,000  Level FlightAware
01:16AM 23.4020 -78.1520 155° Southeast 457 526 35,000  Level FlightAware
01:17AM 23.3240 -78.1120 155° Southeast 457 526 35,000  Level FlightAware
01:19AM 23.1371 -77.9426 140° Southeast  Level Estimated
01:20AM 23.0395 -77.8543 140° Southeast  Level Estimated
01:21AM 22.9418 -77.7662 140° Southeast  Level Estimated
01:22AM 22.8441 -77.6783 140° Southeast  Level Estimated
01:23AM 22.7464 -77.5904 140° Southeast  Level Estimated
01:24AM 22.6486 -77.5027 140° Southeast  Level Estimated
01:25AM 22.5507 -77.4151 140° Southeast  Level Estimated
01:26AM 22.4529 -77.3277 140° Southeast  Level Estimated
01:27AM 22.3549 -77.2403 140° Southeast  Level Estimated
01:28AM 22.2569 -77.1531 141° Southeast  Level Estimated
01:29AM 22.1589 -77.0660 141° Southeast  Level Estimated
01:30AM 22.0608 -76.9790 141° Southeast  Level Estimated
01:31AM 21.9627 -76.8922 141° Southeast  Level Estimated
01:32AM 21.8645 -76.8054 141° Southeast  Level Estimated
01:33AM 21.7663 -76.7188 141° Southeast  Level Estimated
01:34AM 21.6681 -76.6323 141° Southeast  Level Estimated
01:35AM 21.5698 -76.5459 141° Southeast  Level Estimated
01:36AM 21.4714 -76.4596 141° Southeast  Level Estimated
01:37AM 21.3730 -76.3735 141° Southeast  Level Estimated
01:38AM 21.2746 -76.2875 141° Southeast  Level Estimated
01:39AM 21.1761 -76.2016 141° Southeast  Level Estimated
01:40AM 21.0776 -76.1158 141° Southeast  Level Estimated
01:41AM 20.9790 -76.0301 141° Southeast  Level Estimated
01:42AM 20.8804 -75.9445 141° Southeast  Level Estimated
01:43AM 20.7818 -75.8590 141° Southeast  Level Estimated
01:44AM 20.6831 -75.7737 141° Southeast  Level Estimated
01:45AM 20.5844 -75.6884 141° Southeast  Level Estimated
01:46AM 20.4856 -75.6033 141° Southeast  Level Estimated
01:47AM 20.3868 -75.5183 141° Southeast  Level Estimated
01:48AM 20.2879 -75.4334 141° Southeast  Level Estimated
01:49AM 20.1890 -75.3486 141° Southeast  Level Estimated
01:50AM 20.0901 -75.2639 141° Southeast  Level Estimated
01:51AM 19.9911 -75.1793 141° Southeast  Level Estimated
01:52AM 19.8921 -75.0948 141° Southeast  Level Estimated
01:53AM 19.7930 -75.0104 141° Southeast  Level Estimated
01:54AM 19.6939 -74.9261 141° Southeast  Level Estimated
01:55AM 19.5948 -74.8420 141° Southeast  Level Estimated
01:56AM 19.4956 -74.7579 141° Southeast  Level Estimated
01:57AM 19.3964 -74.6740 141° Southeast  Level Estimated
01:58AM 19.2971 -74.5901 141° Southeast  Level Estimated
01:59AM 19.1978 -74.5063 141° Southeast  Level Estimated
02:00AM 19.0985 -74.4227 141° Southeast  Level Estimated
02:01AM 18.9991 -74.3391 142° Southeast  Level Estimated
02:02AM 18.8997 -74.2557 142° Southeast  Level Estimated
02:03AM 18.8003 -74.1723 142° Southeast  Level Estimated
02:04AM 18.7008 -74.0890 142° Southeast  Level Estimated
02:05AM 18.6013 -74.0059 142° Southeast  Level Estimated
02:06AM 18.5017 -73.9228 142° Southeast  Level Estimated
02:07AM 18.4021 -73.8399 142° Southeast  Level Estimated
02:08AM 18.3025 -73.7570 142° Southeast  Level Estimated
02:09AM 18.2028 -73.6742 142° Southeast  Level Estimated
02:10AM 18.1031 -73.5915 142° Southeast  Level Estimated
02:11AM 18.0034 -73.5089 142° Southeast  Level Estimated
02:12AM 17.9036 -73.4264 142° Southeast  Level Estimated
02:13AM 17.8038 -73.3440 142° Southeast  Level Estimated
02:14AM 17.7040 -73.2617 142° Southeast  Level Estimated
02:15AM 17.6041 -73.1795 142° Southeast  Level Estimated
02:16AM 17.5042 -73.0974 142° Southeast  Level Estimated
02:17AM 17.4043 -73.0153 142° Southeast  Level Estimated
02:18AM 17.3043 -72.9334 142° Southeast  Level Estimated
02:19AM 17.2043 -72.8515 142° Southeast  Level Estimated
02:20AM 17.1043 -72.7698 142° Southeast  Level Estimated
02:21AM 17.0042 -72.6881 142° Southeast  Level Estimated
02:22AM 16.9041 -72.6065 142° Southeast  Level Estimated
02:23AM 16.8040 -72.5250 142° Southeast  Level Estimated
02:24AM 16.7038 -72.4436 142° Southeast  Level Estimated
02:25AM 16.6036 -72.3622 142° Southeast  Level Estimated
02:26AM 16.5034 -72.2810 142° Southeast  Level Estimated
02:27AM 16.4031 -72.1998 142° Southeast  Level Estimated
02:28AM 16.3028 -72.1187 142° Southeast  Level Estimated
02:29AM 16.2025 -72.0377 142° Southeast  Level Estimated
02:30AM 16.1021 -71.9568 142° Southeast  Level Estimated
02:31AM 16.0018 -71.8760 142° Southeast  Level Estimated
02:32AM 15.9014 -71.7952 142° Southeast  Level Estimated
02:33AM 15.8009 -71.7145 142° Southeast  Level Estimated
02:34AM 15.7004 -71.6339 142° Southeast  Level Estimated
02:35AM 15.5999 -71.5534 142° Southeast  Level Estimated
02:36AM 15.4994 -71.4730 142° Southeast  Level Estimated
02:37AM 15.3988 -71.3926 142° Southeast  Level Estimated
02:38AM 15.2983 -71.3124 142° Southeast  Level Estimated
02:39AM 15.1976 -71.2322 142° Southeast  Level Estimated
02:40AM 15.0970 -71.1520 142° Southeast  Level Estimated
02:41AM 14.9963 -71.0720 142° Southeast  Level Estimated
02:42AM 14.8956 -70.9920 142° Southeast  Level Estimated
02:43AM 14.7949 -70.9121 143° Southeast  Level Estimated
02:44AM 14.6941 -70.8323 143° Southeast  Level Estimated
02:45AM 14.5933 -70.7525 143° Southeast  Level Estimated
02:46AM 14.4925 -70.6728 143° Southeast  Level Estimated
02:47AM 14.3917 -70.5932 143° Southeast  Level Estimated
02:48AM 14.2908 -70.5137 143° Southeast  Level Estimated
02:49AM 14.1899 -70.4342 143° Southeast  Level Estimated
02:50AM 14.0890 -70.3548 143° Southeast  Level Estimated
02:51AM 13.9880 -70.2755 143° Southeast  Level Estimated
02:52AM 13.8871 -70.1963 143° Southeast  Level Estimated
02:53AM 13.7861 -70.1171 143° Southeast  Level Estimated
02:54AM 13.6851 -70.0380 143° Southeast  Level Estimated
02:55AM 13.5840 -69.9589 143° Southeast  Level Estimated
02:56AM 13.4829 -69.8799 143° Southeast  Level Estimated
02:57AM 13.3818 -69.8010 143° Southeast  Level Estimated
02:58AM 13.2807 -69.7222 143° Southeast  Level Estimated
02:59AM 13.1796 -69.6434 143° Southeast  Level Estimated
03:00AM 13.0784 -69.5647 143° Southeast  Level Estimated
03:01AM 12.9772 -69.4860 143° Southeast  Level Estimated
03:02AM 12.8760 -69.4074 143° Southeast  Level Estimated
03:03AM 12.7747 -69.3289 143° Southeast  Level Estimated
03:04AM 12.6735 -69.2505 143° Southeast  Level Estimated
03:05AM 12.5722 -69.1721 143° Southeast  Level Estimated
03:06AM 12.4709 -69.0937 143° Southeast  Level Estimated
03:07AM 12.3695 -69.0154 143° Southeast  Level Estimated
03:08AM 12.2682 -68.9372 143° Southeast  Level Estimated
03:09AM 12.1668 -68.8591 143° Southeast  Level Estimated
03:10AM 12.0654 -68.7810 143° Southeast  Level Estimated
03:11AM 11.9640 -68.7029 143° Southeast  Level Estimated
03:12AM 11.8626 -68.6249 143° Southeast  Level Estimated
03:13AM 11.7611 -68.5470 143° Southeast  Level Estimated
03:14AM 11.6596 -68.4692 143° Southeast  Level Estimated
03:15AM 11.5581 -68.3913 143° Southeast  Level Estimated
03:16AM 11.4566 -68.3136 143° Southeast  Level Estimated
03:17AM 11.3550 -68.2359 143° Southeast  Level Estimated
03:18AM 11.2535 -68.1583 143° Southeast  Level Estimated
03:19AM 11.1519 -68.0807 143° Southeast  Level Estimated
03:20AM 11.0503 -68.0032 143° Southeast  Level Estimated
03:21AM 10.9486 -67.9257 143° Southeast  Level Estimated
03:22AM 10.8470 -67.8483 143° Southeast  Level Estimated
03:23AM 10.7453 -67.7709 143° Southeast  Level Estimated
03:24AM 10.6436 -67.6936 143° Southeast  Level Estimated
03:25AM 10.5419 -67.6163 143° Southeast  Level Estimated
03:26AM 10.4402 -67.5391 143° Southeast  Level Estimated
03:27AM 10.3385 -67.4619 143° Southeast  Level Estimated
03:28AM 10.2367 -67.3848 143° Southeast  Level Estimated
03:29AM 10.1349 -67.3077 143° Southeast  Level Estimated
03:30AM 10.0331 -67.2307 143° Southeast  Level Estimated
03:31AM 9.9313 -67.1537 143° Southeast  Level Estimated
03:32AM 9.8295 -67.0768 143° Southeast  Level Estimated
03:33AM 9.7276 -67.0000 143° Southeast  Level Estimated
03:34AM 9.6258 -66.9231 143° Southeast  Level Estimated
03:35AM 9.5239 -66.8464 143° Southeast  Level Estimated
03:36AM 9.4220 -66.7696 143° Southeast  Level Estimated
03:37AM 9.3201 -66.6929 143° Southeast  Level Estimated
03:38AM 9.2181 -66.6163 143° Southeast  Level Estimated
03:39AM 9.1162 -66.5397 143° Southeast  Level Estimated
03:40AM 9.0142 -66.4631 143° Southeast  Level Estimated
03:41AM 8.9122 -66.3866 143° Southeast  Level Estimated
03:42AM 8.8103 -66.3102 143° Southeast  Level Estimated
03:43AM 8.7082 -66.2337 143° Southeast  Level Estimated
03:44AM 8.6062 -66.1573 143° Southeast  Level Estimated
03:45AM 8.5042 -66.0810 143° Southeast  Level Estimated
03:46AM 8.4021 -66.0047 144° Southeast  Level Estimated
03:47AM 8.3000 -65.9284 144° Southeast  Level Estimated
03:48AM 8.1980 -65.8522 144° Southeast  Level Estimated
03:49AM 8.0958 -65.7760 144° Southeast  Level Estimated
03:50AM 7.9937 -65.6999 144° Southeast  Level Estimated
03:51AM 7.8916 -65.6238 144° Southeast  Level Estimated
03:52AM 7.7895 -65.5477 144° Southeast  Level Estimated
03:53AM 7.6873 -65.4717 144° Southeast  Level Estimated
03:54AM 7.5851 -65.3957 144° Southeast  Level Estimated
03:55AM 7.4830 -65.3197 144° Southeast  Level Estimated
03:56AM 7.3808 -65.2438 144° Southeast  Level Estimated
03:57AM 7.2786 -65.1679 144° Southeast  Level Estimated
03:58AM 7.1764 -65.0920 144° Southeast  Level Estimated
03:59AM 7.0741 -65.0162 144° Southeast  Level Estimated
04:00AM 6.9719 -64.9404 144° Southeast  Level Estimated
04:01AM 6.8696 -64.8646 144° Southeast  Level Estimated
04:02AM 6.7674 -64.7889 144° Southeast  Level Estimated
04:03AM 6.6651 -64.7132 144° Southeast  Level Estimated
04:04AM 6.5628 -64.6376 144° Southeast  Level Estimated
04:05AM 6.4605 -64.5620 144° Southeast  Level Estimated
04:06AM 6.3582 -64.4864 144° Southeast  Level Estimated
04:07AM 6.2558 -64.4108 144° Southeast  Level Estimated
04:08AM 6.1535 -64.3352 144° Southeast  Level Estimated
04:09AM 6.0511 -64.2597 144° Southeast  Level Estimated
04:10AM 5.9488 -64.1842 144° Southeast  Level Estimated
04:11AM 5.8464 -64.1088 144° Southeast  Level Estimated
04:12AM 5.7440 -64.0334 144° Southeast  Level Estimated
04:13AM 5.6417 -63.9580 144° Southeast  Level Estimated
04:14AM 5.5392 -63.8826 144° Southeast  Level Estimated
04:15AM 5.4368 -63.8073 144° Southeast  Level Estimated
04:16AM 5.3344 -63.7319 144° Southeast  Level Estimated
04:17AM 5.2320 -63.6567 144° Southeast  Level Estimated
04:18AM 5.1296 -63.5814 144° Southeast  Level Estimated
04:19AM 5.0271 -63.5061 144° Southeast  Level Estimated
04:20AM 4.9247 -63.4309 144° Southeast  Level Estimated
04:21AM 4.8222 -63.3557 144° Southeast  Level Estimated
04:22AM 4.7197 -63.2805 144° Southeast  Level Estimated
04:23AM 4.6173 -63.2054 144° Southeast  Level Estimated
04:24AM 4.5148 -63.1303 144° Southeast  Level Estimated
04:25AM 4.4123 -63.0552 144° Southeast  Level Estimated
04:26AM 4.3098 -62.9801 144° Southeast  Level Estimated
04:27AM 4.2073 -62.9050 144° Southeast  Level Estimated
04:28AM 4.1048 -62.8299 144° Southeast  Level Estimated
04:29AM 4.0023 -62.7549 144° Southeast  Level Estimated
04:30AM 3.8997 -62.6799 144° Southeast  Level Estimated
04:31AM 3.7972 -62.6049 144° Southeast  Level Estimated
04:32AM 3.6946 -62.5299 144° Southeast  Level Estimated
04:33AM 3.5921 -62.4550 144° Southeast  Level Estimated
04:34AM 3.4896 -62.3800 144° Southeast  Level Estimated
04:35AM 3.3870 -62.3051 144° Southeast  Level Estimated
04:36AM 3.2844 -62.2302 144° Southeast  Level Estimated
04:37AM 3.1818 -62.1553 144° Southeast  Level Estimated
04:38AM 3.0793 -62.0804 144° Southeast  Level Estimated
04:39AM 2.9767 -62.0056 144° Southeast  Level Estimated
04:40AM 2.8741 -61.9307 144° Southeast  Level Estimated
04:41AM 2.7715 -61.8559 144° Southeast  Level Estimated
04:42AM 2.6689 -61.7811 144° Southeast  Level Estimated
04:43AM 2.5663 -61.7063 144° Southeast  Level Estimated
04:44AM 2.4637 -61.6315 144° Southeast  Level Estimated
04:45AM 2.3611 -61.5567 144° Southeast  Level Estimated
04:46AM 2.2585 -61.4819 144° Southeast  Level Estimated
04:47AM 2.1559 -61.4071 144° Southeast  Level Estimated
04:48AM 2.0533 -61.3324 144° Southeast  Level Estimated
04:49AM 1.9506 -61.2576 144° Southeast  Level Estimated
04:50AM 1.8480 -61.1829 144° Southeast  Level Estimated
04:51AM 1.7454 -61.1081 144° Southeast  Level Estimated
04:52AM 1.6427 -61.0334 144° Southeast  Level Estimated
04:53AM 1.5401 -60.9587 144° Southeast  Level Estimated
04:54AM 1.4375 -60.8840 144° Southeast  Level Estimated
04:55AM 1.3348 -60.8093 144° Southeast  Level Estimated
04:56AM 1.2322 -60.7346 144° Southeast  Level Estimated
04:57AM 1.1295 -60.6599 144° Southeast  Level Estimated
04:58AM 1.0269 -60.5852 144° Southeast  Level Estimated
04:59AM 0.9242 -60.5106 144° Southeast  Level Estimated
05:00AM 0.8216 -60.4359 144° Southeast  Level Estimated
05:01AM 0.7189 -60.3612 144° Southeast  Level Estimated
05:02AM 0.6163 -60.2865 144° Southeast  Level Estimated
05:03AM 0.5136 -60.2119 144° Southeast  Level Estimated
05:04AM 0.4110 -60.1372 144° Southeast  Level Estimated
05:05AM 0.3083 -60.0626 144° Southeast  Level Estimated
05:06AM 0.2057 -59.9879 144° Southeast  Level Estimated
05:06AM -1.3750 -61.4030 144° Southeast 452 520 37,000  Level FlightAware
05:07AM 0.1030 -59.9132 144° Southeast  Level Estimated
05:07AM -1.4350 -61.3570 143° Southeast 455 524 37,000  Level FlightAware
05:07AM -1.5050 -61.3040 143° Southeast 457 526 37,000  Level FlightAware
05:08AM -1.5790 -61.2470 142° Southeast 459 528 37,000  Level FlightAware
05:09AM -1.6480 -61.1950 143° Southeast 460 529 37,000  Level FlightAware
05:10AM -1.7220 -61.1380 142° Southeast 462 532 37,000  Level FlightAware
05:10AM -1.7900 -61.0860 143° Southeast 464 534 37,000  Level FlightAware
05:11AM -1.8680 -61.0250 142° Southeast 464 534 37,000  Level FlightAware
05:12AM -1.9470 -60.9650 143° Southeast 465 535 37,000  Level FlightAware
05:12AM -2.0150 -60.9130 143° Southeast 465 535 37,000  Level FlightAware
05:13AM -2.0900 -60.8550 142° Southeast 464 534 37,000  Level FlightAware
05:14AM -2.1510 -60.8080 142° Southeast 464 534 37,000  Level FlightAware
05:14AM -2.2200 -60.7550 142° Southeast 465 535 37,000  Level FlightAware
05:15AM -2.2950 -60.6970 142° Southeast 465 535 37,000  Level FlightAware
05:16AM -2.3640 -60.6440 142° Southeast 465 535 37,000  Level FlightAware
05:17AM -2.4360 -60.5890 143° Southeast 465 535 37,000  Level FlightAware
05:17AM -2.5060 -60.5340 142° Southeast 464 534 37,000  Level FlightAware
05:18AM -2.5780 -60.4720 139° Southeast 463 533 37,000  Level FlightAware
05:19AM -2.6350 -60.4190 137° Southeast 462 532 37,000  Level FlightAware
05:19AM -2.6980 -60.3620 138° Southeast 462 532 37,000  Level FlightAware
05:20AM -2.7680 -60.3000 139° Southeast 461 531 37,000  Level FlightAware
05:21AM -2.8260 -60.2470 138° Southeast 462 532 37,000  Level FlightAware
05:21AM -2.8890 -60.1900 138° Southeast 462 532 37,000  Level FlightAware
05:22AM -2.9530 -60.1330 138° Southeast 462 532 37,000  Level FlightAware
05:23AM -3.0160 -60.0770 138° Southeast 461 531 37,000  Level FlightAware
05:23AM -3.0820 -60.0210 140° Southeast 461 531 37,000  Level FlightAware
05:24AM -3.1500 -59.9690 143° Southeast 461 531 37,000  Level FlightAware
05:25AM -3.2180 -59.9180 143° Southeast 461 531 37,000  Level FlightAware
05:25AM -3.2910 -59.8620 143° Southeast 461 531 37,000  Level FlightAware
05:26AM -3.3610 -59.8090 143° Southeast 461 531 37,000  Level FlightAware
05:27AM -3.4350 -59.7520 142° Southeast 461 531 37,000  Level FlightAware
05:27AM -3.5020 -59.6990 142° Southeast 461 531 37,000  Level FlightAware
05:28AM -3.5610 -59.6510 141° Southeast 461 531 37,000  Level FlightAware
05:29AM -3.6310 -59.5880 138° Southeast 462 532 37,000  Level FlightAware
05:29AM -3.6950 -59.5300 138° Southeast 461 531 37,000  Level FlightAware
05:30AM -3.7650 -59.4670 138° Southeast 460 529 37,000  Level FlightAware
05:31AM -3.8280 -59.4100 138° Southeast 460 529 37,000  Level FlightAware
05:31AM -3.8950 -59.3490 138° Southeast 460 529 37,000  Level FlightAware
05:32AM -3.9650 -59.2860 138° Southeast 460 529 37,000  Level FlightAware
05:33AM -4.0220 -59.2350 138° Southeast 460 529 37,000  Level FlightAware
05:33AM -4.0780 -59.1840 138° Southeast 458 527 37,000  Level FlightAware
05:34AM -4.1410 -59.1260 137° Southeast 458 527 37,000  Level FlightAware
05:35AM -4.1880 -59.0820 137° Southeast 458 527 37,000  Level FlightAware
05:35AM -4.2360 -59.0380 138° Southeast 458 527 37,000  Level FlightAware
05:36AM -4.2990 -58.9790 137° Southeast 458 527 37,000  Level FlightAware
05:37AM -4.3470 -58.9340 137° Southeast 458 527 37,000  Level FlightAware
05:37AM -4.3940 -58.8900 137° Southeast 458 527 37,000  Level FlightAware
05:38AM -4.4570 -58.8310 137° Southeast 458 527 37,000  Level FlightAware
05:39AM -4.5050 -58.7860 137° Southeast 458 527 37,000  Level FlightAware
05:40AM -4.5680 -58.7270 137° Southeast 458 527 37,000  Level FlightAware
05:40AM -4.6150 -58.6830 137° Southeast 458 527 37,000  Level FlightAware
05:41AM -4.6780 -58.6240 137° Southeast 458 527 37,000  Level FlightAware
05:42AM -4.7260 -58.5790 137° Southeast 458 527 37,000  Level FlightAware
05:42AM -4.7730 -58.5350 137° Southeast 458 527 37,000  Level FlightAware
05:43AM -4.8370 -58.4760 137° Southeast 458 527 37,000  Level FlightAware
05:44AM -4.8840 -58.4310 136° Southeast 458 527 37,000 -60 Level FlightAware
05:46AM -5.0650 -58.2646 138° Southeast  Level Estimated
05:47AM -5.1586 -58.1786 138° Southeast  Level Estimated
05:48AM -5.2522 -58.0925 138° Southeast  Level Estimated
05:49AM -5.3458 -58.0063 137° Southeast  Level Estimated
05:50AM -5.4393 -57.9202 137° Southeast  Level Estimated
05:51AM -5.5329 -57.8340 137° Southeast  Level Estimated
05:52AM -5.6264 -57.7478 137° Southeast  Level Estimated
05:53AM -5.7199 -57.6615 137° Southeast  Level Estimated
05:54AM -5.8134 -57.5753 137° Southeast  Level Estimated
05:55AM -5.9069 -57.4890 137° Southeast  Level Estimated
05:56AM -6.0004 -57.4026 137° Southeast  Level Estimated
05:57AM -6.0939 -57.3163 137° Southeast  Level Estimated
05:58AM -6.1874 -57.2299 137° Southeast  Level Estimated
05:59AM -6.2808 -57.1435 137° Southeast  Level Estimated
06:00AM -6.3742 -57.0570 137° Southeast  Level Estimated
06:01AM -6.4677 -56.9705 137° Southeast  Level Estimated
06:02AM -6.5611 -56.8840 137° Southeast  Level Estimated
06:03AM -6.6545 -56.7975 137° Southeast  Level Estimated
06:04AM -6.7478 -56.7109 137° Southeast  Level Estimated
06:05AM -6.8412 -56.6243 137° Southeast  Level Estimated
06:06AM -6.9345 -56.5377 137° Southeast  Level Estimated
06:07AM -7.0279 -56.4510 137° Southeast  Level Estimated
06:08AM -7.1212 -56.3643 137° Southeast  Level Estimated
06:09AM -7.2145 -56.2775 137° Southeast  Level Estimated
06:10AM -7.3077 -56.1907 137° Southeast  Level Estimated
06:11AM -7.4010 -56.1039 137° Southeast  Level Estimated
06:12AM -7.4942 -56.0171 137° Southeast  Level Estimated
06:13AM -7.5875 -55.9302 137° Southeast  Level Estimated
06:14AM -7.6807 -55.8432 137° Southeast  Level Estimated
06:15AM -7.7739 -55.7563 137° Southeast  Level Estimated
06:16AM -7.8670 -55.6693 137° Southeast  Level Estimated
06:17AM -7.9602 -55.5822 137° Southeast  Level Estimated
06:18AM -8.0533 -55.4951 137° Southeast  Level Estimated
06:19AM -8.1465 -55.4080 137° Southeast  Level Estimated
06:20AM -8.2396 -55.3208 137° Southeast  Level Estimated
06:21AM -8.3326 -55.2336 137° Southeast  Level Estimated
06:22AM -8.4257 -55.1464 137° Southeast  Level Estimated
06:23AM -8.5187 -55.0591 137° Southeast  Level Estimated
06:24AM -8.6118 -54.9717 137° Southeast  Level Estimated
06:25AM -8.7048 -54.8843 137° Southeast  Level Estimated
06:26AM -8.7978 -54.7969 137° Southeast  Level Estimated
06:27AM -8.8907 -54.7094 137° Southeast  Level Estimated
06:28AM -8.9837 -54.6219 137° Southeast  Level Estimated
06:29AM -9.0766 -54.5344 137° Southeast  Level Estimated
06:30AM -9.1695 -54.4468 137° Southeast  Level Estimated
06:31AM -9.2624 -54.3591 137° Southeast  Level Estimated
06:32AM -9.3552 -54.2714 137° Southeast  Level Estimated
06:33AM -9.4481 -54.1837 137° Southeast  Level Estimated
06:34AM -9.5409 -54.0959 137° Southeast  Level Estimated
06:35AM -9.6337 -54.0081 137° Southeast  Level Estimated
06:36AM -9.7265 -53.9202 137° Southeast  Level Estimated
06:37AM -9.8192 -53.8323 137° Southeast  Level Estimated
06:38AM -9.9120 -53.7443 137° Southeast  Level Estimated
06:39AM -10.0047 -53.6563 137° Southeast  Level Estimated
06:40AM -10.0973 -53.5682 137° Southeast  Level Estimated
06:41AM -10.1900 -53.4800 137° Southeast  Level Estimated
06:42AM -10.2826 -53.3919 137° Southeast  Level Estimated
06:43AM -10.3752 -53.3036 137° Southeast  Level Estimated
06:44AM -10.4678 -53.2154 137° Southeast  Level Estimated
06:45AM -10.5604 -53.1270 137° Southeast  Level Estimated
06:46AM -10.6529 -53.0386 137° Southeast  Level Estimated
06:47AM -10.7455 -52.9502 137° Southeast  Level Estimated
06:48AM -10.8379 -52.8617 137° Southeast  Level Estimated
06:49AM -10.9304 -52.7731 137° Southeast  Level Estimated
06:50AM -11.0228 -52.6845 137° Southeast  Level Estimated
06:51AM -11.1152 -52.5958 137° Southeast  Level Estimated
06:52AM -11.2076 -52.5071 137° Southeast  Level Estimated
06:53AM -11.3000 -52.4183 137° Southeast  Level Estimated
06:54AM -11.3923 -52.3295 137° Southeast  Level Estimated
06:55AM -11.4846 -52.2406 137° Southeast  Level Estimated
06:56AM -11.5769 -52.1516 137° Southeast  Level Estimated
06:57AM -11.6692 -52.0626 137° Southeast  Level Estimated
06:58AM -11.7614 -51.9736 137° Southeast  Level Estimated
06:59AM -11.8536 -51.8844 137° Southeast  Level Estimated
07:00AM -11.9458 -51.7952 137° Southeast  Level Estimated
07:01AM -12.0379 -51.7060 137° Southeast  Level Estimated
07:02AM -12.1300 -51.6167 137° Southeast  Level Estimated
07:03AM -12.2221 -51.5273 137° Southeast  Level Estimated
07:04AM -12.3142 -51.4379 136° Southeast  Level Estimated
07:05AM -12.4062 -51.3484 136° Southeast  Level Estimated
07:06AM -12.4982 -51.2588 136° Southeast  Level Estimated
07:07AM -12.5902 -51.1692 136° Southeast  Level Estimated
07:08AM -12.6821 -51.0795 136° Southeast  Level Estimated
07:09AM -12.7740 -50.9897 136° Southeast  Level Estimated
07:10AM -12.8659 -50.8999 136° Southeast  Level Estimated
07:11AM -12.9577 -50.8100 136° Southeast  Level Estimated
07:12AM -13.0496 -50.7201 136° Southeast  Level Estimated
07:13AM -13.1413 -50.6301 136° Southeast  Level Estimated
07:14AM -13.2331 -50.5400 136° Southeast  Level Estimated
07:15AM -13.3248 -50.4498 136° Southeast  Level Estimated
07:16AM -13.4165 -50.3596 136° Southeast  Level Estimated
07:17AM -13.5082 -50.2693 136° Southeast  Level Estimated
07:18AM -13.5998 -50.1789 136° Southeast  Level Estimated
07:19AM -13.6914 -50.0885 136° Southeast  Level Estimated
07:20AM -13.7829 -49.9980 136° Southeast  Level Estimated
07:21AM -13.8745 -49.9074 136° Southeast  Level Estimated
07:22AM -13.9660 -49.8168 136° Southeast  Level Estimated
07:23AM -14.0574 -49.7261 136° Southeast  Level Estimated
07:24AM -14.1489 -49.6353 136° Southeast  Level Estimated
07:25AM -14.2402 -49.5444 136° Southeast  Level Estimated
07:26AM -14.3316 -49.4535 136° Southeast  Level Estimated
07:27AM -14.4229 -49.3625 136° Southeast  Level Estimated
07:28AM -14.5142 -49.2714 136° Southeast  Level Estimated
07:29AM -14.6055 -49.1802 136° Southeast  Level Estimated
07:30AM -14.6967 -49.0890 136° Southeast  Level Estimated
07:31AM -14.7879 -48.9977 136° Southeast  Level Estimated
07:31AM -14.6760 -49.3580 136° Southeast 35,400  Level FlightAware
07:31AM -14.7430 -49.2990 140° Southeast 470 541 34,600 -1,860 Descending FlightAware
07:32AM -14.8790 -48.9063 136° Southeast  Level Estimated
07:33AM -14.8480 -49.2060 139° Southeast 476 548 32,200  Level FlightAware
07:33AM -14.9110 -49.1510 140° Southeast 476 548 30,300 -2,880 Descending FlightAware
07:34AM -14.9830 -49.0810 137° Southeast 460 529 28,400 -2,640 Descending FlightAware
07:35AM -15.0450 -49.0100 132° Southeast 448 516 26,400 -2,640 Descending FlightAware
07:35AM -15.1030 -48.9460 133° Southeast 444 511 24,700 -2,340 Descending FlightAware
07:36AM -15.1560 -48.8880 133° Southeast 439 505 23,300 -2,340 Descending FlightAware
07:37AM -15.2210 -48.8190 134° Southeast 427 491 21,400 -2,340 Descending FlightAware
07:37AM -15.2810 -48.7530 133° Southeast 417 480 19,800 -2,220 Descending FlightAware
07:38AM -15.3340 -48.6950 133° Southeast 406 467 18,300 -2,220 Descending FlightAware
07:39AM -15.3910 -48.6330 134° Southeast 394 453 16,700 -2,040 Descending FlightAware
07:40AM -15.4410 -48.5790 134° Southeast 383 441 15,400 -1,500 Descending FlightAware
07:40AM -15.4880 -48.5270 133° Southeast 357 411 14,700 -840 Descending FlightAware
07:41AM -15.5360 -48.4740 133° Southeast 320 368 14,300 -540 Descending FlightAware
07:42AM -15.5740 -48.4320 133° Southeast 286 329 14,000 -780 Descending FlightAware
07:42AM -15.6060 -48.3920 130° Southeast 270 311 13,300 -1,380 Descending FlightAware
07:43AM -15.6390 -48.3450 126° Southeast 256 295 12,100 -1,500 Descending FlightAware
07:44AM -15.6660 -48.3070 126° Southeast 247 284 11,200 -1,440 Descending FlightAware
07:44AM -15.6970 -48.2640 127° Southeast 241 277 10,100 -1,380 Descending FlightAware
07:45AM -15.7160 -48.2370 126° Southeast 222 255 9,500 -1,200 Descending FlightAware
07:45AM -15.7300 -48.2160 125° Southeast 218 251 9,000 -1,320 Descending FlightAware
07:46AM -15.7460 -48.1940 127° Southeast 224 258 8,400 -1,200 Descending FlightAware
07:46AM -15.7640 -48.1680 126° Southeast 224 258 7,900 -780 Descending FlightAware
07:47AM -15.7800 -48.1470 128° Southeast 214 246 7,700 -720 Descending FlightAware
07:47AM -15.7980 -48.1380 154° Southeast 236 272 7,400 -1,080 Descending FlightAware
07:47AM -15.8240 -48.1300 164° South 226 260 6,900 -1,080 Descending FlightAware
07:48AM -15.8380 -48.1260 165° South 215 247 6,700 -480 Descending FlightAware
07:48AM -15.8610 -48.1200 166° South 201 231 6,600 -360 Descending FlightAware
07:49AM -15.8850 -48.1080 154° Southeast 185 213 6,400 -540 Descending FlightAware
07:49AM -15.8900 -48.0960 113° Southeast 174 200 6,200 -960 Descending FlightAware
07:49AM -15.8890 -48.0730 87° East 146 168 5,700 -840 Descending FlightAware
07:50AM -15.8880 -48.0550 87° East 123 142 5,400 -720 Descending FlightAware
07:50AM -15.8870 -48.0420 85° East 122 140 5,100 -720 Descending FlightAware
07:51AM -15.8860 -48.0250 87° East 118 136 4,800 -600 Descending FlightAware
07:51AM -15.8860 -48.0180 90° East 119 137 4,700 -660 Descending FlightAware
07:51AM -15.8850 -48.0030 86° East 133 153 4,400 -780 Descending FlightAware
07:52AM -15.8840 -47.9920 85° East 128 147 4,200 -720 Descending FlightAware
07:52AM -15.8830 -47.9800 85° East 130 150 4,000 -720 Descending FlightAware
07:52AM -15.8820 -47.9640 86° East 137 158 3,700 -780 Descending FlightAware
07:53AM -15.8810 -47.9440 87° East 130 150 3,300 -660 Descending FlightAware
07:53AM -15.8800 -47.9310 85° East 117 135 3,100 -480 Descending FlightAware
07:54AM -15.8790 -47.9210 84° East 42 48 -6,000 Descending FlightAware
07:54AM -15.8790 -47.9160 90° East 34 39  Level FlightAware